Main page
METAR-TAF:

METAR-TAF

Airports :

Brussels Airport. Zaventem

Brussels, Belgium

latitude: 50-54N, longitude: 004-32E, elevation: 55 m

Current weather observation

The report was made 36 minutes ago, at 06:20 UTC
Wind 7 kt from the South/Southwest
Temperature 16°C
Humidity 88%
Pressure 1013 hPa
Visibility: 7000 m
Few clouds at a height of 3400 ft

METAR: EBBR 260620Z 20007KT 7000 FEW034 16/14 Q1013 NOSIG

Time: 08:56 (06:56 UTC)

Forecast

The report was made 1 hour and 46 minutes ago, at 05:10 UTC
Forecast valid from 26 at 06 UTC to 27 at 12 UTC
Wind 8 kt from the South/Southwest
Visibility 10 km or more
Scattered clouds at a height of 4000 ft
Probability 30% :
Temporary
from 26 at 13 UTC to 26 at 23 UTC
Visibility: 4000 m
Broken clouds at a height of 1400 ft, Cumulonimbus.
rain showers

TAF: EBBR 260510Z 2606/2712 20008KT 9999 SCT040 PROB30 TEMPO 2613/2623 4000 SHRA BKN014CB

Weather observations and forecasts of more than 4000 airports (METAR and TAF reports).

The available stations are represented by yellow and red dots on the map.

Hover mouse over dot to see the name of the station.

Then click to see weather observations and forecasts.

To change the map : click on the green buttons with a black cross to zoom in, on the green button with a dash to zoom out, or on the green arrows for adjacent maps.


METAR-TAF: